createdAt,value
2022-11-27T00:03:56.344Z,16.13
2022-11-27T00:08:55.887Z,15.23
2022-11-27T00:13:53.524Z,13.43
2022-11-27T00:18:52.297Z,15.93
2022-11-27T00:23:55.371Z,14.55
2022-11-27T00:28:53.714Z,15.05
2022-11-27T00:33:55.050Z,15.32
2022-11-27T00:38:52.592Z,15.68
2022-11-27T00:43:50.362Z,14.07
2022-11-27T00:48:47.780Z,15.00
2022-11-27T00:53:45.730Z,15.80
2022-11-27T00:58:43.848Z,13.32
2022-11-27T01:03:42.515Z,11.90
2022-11-27T01:08:40.595Z,12.20
2022-11-27T01:13:37.813Z,12.35
2022-11-27T01:18:36.424Z,11.95
2022-11-27T01:23:33.927Z,11.50
2022-11-27T01:28:32.583Z,11.10
2022-11-27T01:33:30.097Z,11.93
2022-11-27T01:38:29.041Z,12.07
2022-11-27T01:43:46.329Z,11.90
2022-11-27T01:48:43.768Z,9.93
2022-11-27T01:53:42.139Z,10.07
2022-11-27T01:58:40.143Z,9.10
2022-11-27T02:03:38.308Z,10.45
2022-11-27T02:08:35.540Z,10.27
2022-11-27T02:14:10.157Z,9.60
2022-11-27T02:19:33.786Z,10.15
2022-11-27T02:24:43.056Z,9.70
2022-11-27T02:29:43.128Z,10.18
2022-11-27T02:34:56.223Z,8.95
2022-11-27T02:40:36.603Z,9.63
2022-11-27T02:45:38.839Z,9.02
2022-11-27T02:50:39.274Z,10.10
2022-11-27T02:55:39.671Z,10.05
2022-11-27T03:00:38.510Z,10.45
2022-11-27T03:05:42.803Z,9.52
2022-11-27T03:10:51.649Z,10.02
2022-11-27T03:16:07.448Z,10.07
2022-11-27T03:21:20.655Z,9.35
2022-11-27T03:26:19.029Z,9.77
2022-11-27T03:31:20.073Z,12.23
2022-11-27T03:36:20.665Z,10.87
2022-11-27T03:41:25.792Z,10.15
2022-11-27T03:46:48.825Z,10.52
2022-11-27T03:51:53.757Z,10.07
2022-11-27T03:56:59.820Z,11.05
2022-11-27T04:01:57.688Z,11.32
2022-11-27T04:06:56.191Z,10.57
2022-11-27T04:11:56.645Z,9.88
2022-11-27T04:16:53.909Z,11.40
2022-11-27T04:21:51.920Z,10.75
2022-11-27T04:26:50.188Z,10.88
2022-11-27T04:31:48.218Z,11.13
2022-11-27T04:36:46.408Z,11.88
2022-11-27T04:41:46.674Z,8.93
2022-11-27T04:46:44.768Z,8.80
2022-11-27T04:51:43.698Z,8.60
2022-11-27T04:56:43.573Z,9.73
2022-11-27T05:01:41.968Z,8.85
2022-11-27T05:06:47.610Z,10.80
2022-11-27T05:11:46.384Z,9.27
2022-11-27T05:16:54.278Z,7.50
2022-11-27T05:21:53.555Z,9.13
2022-11-27T05:26:52.166Z,9.68
2022-11-27T05:31:49.869Z,7.25
2022-11-27T05:36:48.060Z,9.60
2022-11-27T05:41:46.830Z,9.35
2022-11-27T05:46:44.323Z,9.30
2022-11-27T05:51:45.130Z,8.60
2022-11-27T05:56:48.092Z,8.65
2022-11-27T06:01:45.493Z,9.63
2022-11-27T06:06:43.050Z,9.35
2022-11-27T06:11:42.420Z,8.45
2022-11-27T06:16:41.087Z,10.15
2022-11-27T06:21:38.826Z,9.43
2022-11-27T06:26:36.114Z,9.82
2022-11-27T06:31:34.095Z,7.45
2022-11-27T06:36:37.790Z,8.93
2022-11-27T06:41:35.676Z,9.35
2022-11-27T06:46:32.913Z,8.52
2022-11-27T06:51:32.457Z,7.55
2022-11-27T06:56:31.538Z,9.20
2022-11-27T07:01:31.820Z,8.55
2022-11-27T07:06:29.348Z,9.38
2022-11-27T07:11:29.959Z,8.07
2022-11-27T07:16:30.351Z,9.02
2022-11-27T07:21:28.602Z,9.63
2022-11-27T07:26:28.629Z,8.95
2022-11-27T07:31:30.946Z,8.05
2022-11-27T07:36:30.942Z,8.48
2022-11-27T07:41:33.735Z,7.97
2022-11-27T07:46:32.285Z,8.27
2022-11-27T07:51:32.598Z,7.82
2022-11-27T07:56:30.664Z,8.13
2022-11-27T08:01:28.517Z,8.23
2022-11-27T08:06:27.354Z,8.35
2022-11-27T08:11:27.784Z,7.22
2022-11-27T08:16:25.324Z,7.80
2022-11-27T08:21:24.269Z,8.45
2022-11-27T08:26:21.616Z,8.15
2022-11-27T08:31:22.880Z,9.18
2022-11-27T08:36:22.867Z,8.27
2022-11-27T08:41:20.603Z,8.70
2022-11-27T08:46:18.172Z,8.48
2022-11-27T08:51:16.846Z,8.13
2022-11-27T08:56:17.504Z,7.32
2022-11-27T09:01:31.983Z,7.50
2022-11-27T09:06:31.972Z,8.07
2022-11-27T09:11:31.723Z,6.72
2022-11-27T09:16:30.361Z,8.57
2022-11-27T09:21:32.861Z,7.63
2022-11-27T09:26:31.407Z,7.35
2022-11-27T09:31:28.956Z,7.45
2022-11-27T09:36:27.073Z,6.10
2022-11-27T09:41:51.313Z,7.93
2022-11-27T09:46:50.828Z,7.20
2022-11-27T09:51:53.905Z,7.05
2022-11-27T09:56:54.179Z,6.78
2022-11-27T10:01:52.295Z,6.28
2022-11-27T10:07:12.558Z,6.78
2022-11-27T10:12:30.479Z,6.32
2022-11-27T10:17:39.489Z,6.95
2022-11-27T10:22:50.234Z,6.55
2022-11-27T10:28:13.548Z,6.57
2022-11-27T10:33:21.984Z,6.45
2022-11-27T10:38:28.094Z,7.60
2022-11-27T10:43:26.264Z,5.88
2022-11-27T10:48:24.083Z,6.28
2022-11-27T10:53:35.723Z,6.72
2022-11-27T10:58:54.832Z,6.68
2022-11-27T11:04:24.722Z,6.00
2022-11-27T11:09:34.937Z,5.85
2022-11-27T11:14:32.227Z,6.22
2022-11-27T11:19:33.361Z,5.38
2022-11-27T11:24:33.876Z,6.18
2022-11-27T11:29:53.238Z,5.90
2022-11-27T11:35:08.636Z,6.20
2022-11-27T11:40:26.120Z,6.93
2022-11-27T11:45:26.530Z,7.43
2022-11-27T11:50:44.508Z,6.20
2022-11-27T11:56:00.329Z,5.95
2022-11-27T12:01:27.268Z,5.68
2022-11-27T12:06:52.871Z,7.10
2022-11-27T12:12:09.076Z,5.20
2022-11-27T12:17:20.357Z,5.65
2022-11-27T12:22:43.931Z,6.18
2022-11-27T12:28:25.603Z,5.10
2022-11-27T12:33:30.382Z,5.90
2022-11-27T12:39:03.281Z,6.07
2022-11-27T12:44:01.193Z,4.57
2022-11-27T12:49:13.716Z,4.85
2022-11-27T12:54:20.981Z,5.70
2022-11-27T12:59:33.348Z,5.95
2022-11-27T13:04:52.073Z,5.57
2022-11-27T13:10:05.950Z,5.70
2022-11-27T13:15:28.110Z,5.65
2022-11-27T13:20:34.997Z,6.55
2022-11-27T13:25:39.815Z,6.60
2022-11-27T13:30:38.190Z,5.07
2022-11-27T13:35:43.511Z,6.10
2022-11-27T13:40:49.494Z,5.13
2022-11-27T13:45:47.000Z,5.05
2022-11-27T13:50:45.787Z,5.75
2022-11-27T13:55:54.636Z,5.45
2022-11-27T14:00:52.002Z,5.68
2022-11-27T14:05:50.813Z,5.35
2022-11-27T14:11:12.015Z,4.47
2022-11-27T14:21:36.070Z,5.30
2022-11-27T14:26:33.509Z,4.63
2022-11-27T14:31:33.697Z,5.43
2022-11-27T14:36:34.965Z,5.10
2022-11-27T14:41:32.775Z,5.07
2022-11-27T14:46:32.676Z,6.10
2022-11-27T14:51:35.836Z,5.70
2022-11-27T14:56:36.770Z,6.38
2022-11-27T15:01:36.914Z,6.18
2022-11-27T15:06:40.440Z,5.40
2022-11-27T15:11:55.195Z,6.22
2022-11-27T15:16:55.714Z,6.30
2022-11-27T15:21:53.316Z,5.97
2022-11-27T15:26:52.233Z,6.85
2022-11-27T15:31:53.275Z,7.32
2022-11-27T15:36:59.900Z,5.90
2022-11-27T15:42:01.599Z,6.43
2022-11-27T15:47:02.369Z,6.88
2022-11-27T15:52:00.501Z,6.32
2022-11-27T15:56:57.902Z,6.78
2022-11-27T16:01:58.200Z,6.32
2022-11-27T16:06:56.244Z,6.07
2022-11-27T16:11:55.817Z,6.95
2022-11-27T16:16:54.070Z,6.15
2022-11-27T16:21:51.419Z,7.13
2022-11-27T16:26:48.708Z,7.47
2022-11-27T16:31:46.904Z,7.43
2022-11-27T16:36:44.323Z,8.95
2022-11-27T16:41:42.543Z,7.07
2022-11-27T16:46:41.157Z,6.82
2022-11-27T16:51:39.625Z,7.03
2022-11-27T16:56:38.767Z,7.57
2022-11-27T17:01:37.785Z,8.37
2022-11-27T17:06:37.538Z,7.55
2022-11-27T17:11:38.163Z,7.25
2022-11-27T17:21:35.972Z,5.40
2022-11-27T17:26:35.788Z,6.68
2022-11-27T17:31:35.676Z,6.72
2022-11-27T17:36:37.232Z,5.85
2022-11-27T17:41:35.582Z,7.35
2022-11-27T17:46:34.537Z,8.20
2022-11-27T17:51:34.420Z,6.18
2022-11-27T17:56:32.732Z,7.88
2022-11-27T18:01:31.237Z,7.40
2022-11-27T18:06:29.002Z,6.90
2022-11-27T18:11:30.169Z,7.73
2022-11-27T18:16:31.885Z,7.63
2022-11-27T18:21:29.482Z,10.70
2022-11-27T18:26:45.476Z,8.95
2022-11-27T18:31:50.068Z,9.32
2022-11-27T18:36:47.501Z,8.70
2022-11-27T18:41:47.782Z,8.48
2022-11-27T18:46:45.013Z,9.55
2022-11-27T18:51:43.334Z,8.43
2022-11-27T18:56:41.662Z,10.68
2022-11-27T19:01:42.387Z,10.13
2022-11-27T19:06:42.446Z,9.35
2022-11-27T19:11:43.038Z,9.63
2022-11-27T19:16:46.610Z,8.82
2022-11-27T19:21:45.649Z,9.00
2022-11-27T19:26:43.007Z,9.65
2022-11-27T19:31:41.008Z,9.27
2022-11-27T19:36:39.800Z,10.10
2022-11-27T19:41:37.894Z,9.00
2022-11-27T19:46:37.809Z,10.32
2022-11-27T19:51:39.347Z,9.38
2022-11-27T19:56:38.848Z,9.60
2022-11-27T20:01:38.153Z,10.20
2022-11-27T20:06:35.630Z,9.98
2022-11-27T20:11:35.604Z,9.98
2022-11-27T20:16:34.623Z,9.38
2022-11-27T20:21:32.631Z,8.90
2022-11-27T20:26:30.844Z,9.25
2022-11-27T20:31:31.275Z,9.93
2022-11-27T20:36:31.208Z,10.30
2022-11-27T20:41:30.623Z,9.38
2022-11-27T20:46:28.621Z,9.65
2022-11-27T20:51:31.499Z,10.45
2022-11-27T20:56:31.186Z,10.65
2022-11-27T21:01:31.223Z,9.53
2022-11-27T21:11:30.472Z,10.18
2022-11-27T21:16:30.576Z,10.50
2022-11-27T21:21:28.837Z,9.55
2022-11-27T21:26:27.747Z,9.23
2022-11-27T21:31:34.505Z,10.23
2022-11-27T21:36:37.977Z,9.20
2022-11-27T21:41:35.770Z,10.73
2022-11-27T21:46:33.805Z,10.60
2022-11-27T21:51:33.789Z,9.93
2022-11-27T21:56:34.108Z,9.35
2022-11-27T22:01:31.757Z,9.80
2022-11-27T22:06:36.803Z,10.05
2022-11-27T22:11:34.123Z,9.40
2022-11-27T22:16:37.570Z,10.07
2022-11-27T22:21:38.036Z,9.07
2022-11-27T22:26:35.453Z,8.45
2022-11-27T22:31:35.845Z,9.35
2022-11-27T22:36:35.100Z,9.43
2022-11-27T22:41:36.538Z,9.35
2022-11-27T22:46:36.901Z,10.10
2022-11-27T22:51:36.593Z,9.70
2022-11-27T22:56:36.237Z,8.95
2022-11-27T23:01:33.804Z,9.52
2022-11-27T23:06:30.982Z,9.65
2022-11-27T23:11:28.907Z,9.85
2022-11-27T23:16:26.699Z,9.23
2022-11-27T23:21:25.466Z,8.05
2022-11-27T23:26:24.475Z,8.85
2022-11-27T23:31:30.833Z,10.02
2022-11-27T23:36:30.758Z,9.25
2022-11-27T23:41:29.363Z,10.60
2022-11-27T23:46:29.676Z,11.15
2022-11-27T23:51:29.767Z,9.48
